Where is Castelo de Alenquer in Portugal?

Castelo de Alenquer is situated in the region Lisboa in Portugal!

Search the name of a city:

Castello della Pietra, Castle Airport, Castillo Nuevo Mobile Home Park, Castle Hill, Castrillos del Monte

Here you will find the location of Castelo de Alenquer on a map.
To see how it currently looks like outside, below are some pictures of the area from online web cameras.
You can also find the distance to the main cities in the region and to cities in the rest of Portugal.

All places in the world called .

new

Where is Castelo de Alenquer on the map?


Webcams near Castelo de Alenquer

Benavente > North-East: AIrport, METAR: BENAV 180005Z 36004KT 17/14 Q1015.


Benavente > North-East: AIrport, METAR: BENAV 180005Z 36004KT 17/14 Q1015 - Day time
Current
Benavente > North-East: AIrport, METAR: BENAV 180005Z 36004KT 17/14 Q1015 - Current

Vasco Carão > South: Garrocheira, Benavente - Airport.


Vasco Carão > South: Garrocheira, Benavente - Airport - Day time
Current
Vasco Carão > South: Garrocheira, Benavente - Airport - Current

Lisbon > South: Rua Vasco da Gama.


Lisbon > South: Rua Vasco da Gama - Day time
Current
Lisbon > South: Rua Vasco da Gama - Current

Webcams provided by webcams.travel

Distances

Where is Castelo de Alenquer relative to other places?

Top 10 cities in Lisboa and distance from Castelo de Alenquer.

City#Populationkmmiles
Lisbon15177984025
Amadora21788563924
Queluz31033984025
Loures4662302918
Rio de Mouro5546954226
Odivelas6546233421
São Domingos de Rana7467174830
Cascais8364365333
Alcabideche9333155031
Póvoa de Santa Iria10289002314

Top 10 cities in Portugal and distance from Castelo de Alenquer.

City # Populationkmmiles
Lisbon15177984025
Porto2249630235146
Amadora31788563924
Braga4121393282175
Setúbal51171096037
Coimbra610658013785
Queluz71033984025
Funchal8980411007626
Vila Nova de Gaia970810233145
Loures10662302918

Alerts and advice Portugal

Advice and information about traveling and security in Portugal.

With a travel advise, tourists can be informed about security risks during traveling or vacation in a foreign country. Be informed about the risks of kidnapping, armed robbery, bombings, natural disasters or war. Know which areas are unsafe in Portugalo. Be vigilant, or avoid certain areas when on vacation in Portugal.

Alerts and advice



Travel information Portugal

Information on travel documents, visa applications and the cost of a visa.
Contact information of embassies in Portugal.
Different types of travel insurance.

Travel information